createdAt,value
2022-12-25T00:02:16.819Z,8.32
2022-12-25T00:04:47.083Z,21.17
2022-12-25T00:07:17.189Z,19.27
2022-12-25T00:09:47.406Z,20.77
2022-12-25T00:12:18.371Z,19.33
2022-12-25T00:14:48.665Z,16.75
2022-12-25T00:17:18.847Z,15.77
2022-12-25T00:19:48.995Z,12.85
2022-12-25T00:22:19.379Z,10.57
2022-12-25T00:24:50.064Z,9.75
2022-12-25T00:27:20.256Z,9.63
2022-12-25T00:29:50.369Z,10.90
2022-12-25T00:32:20.620Z,8.77
2022-12-25T00:34:50.794Z,13.40
2022-12-25T00:37:20.920Z,9.93
2022-12-25T00:39:50.985Z,11.45
2022-12-25T00:42:21.277Z,10.68
2022-12-25T00:44:51.554Z,9.75
2022-12-25T00:47:21.797Z,8.63
2022-12-25T00:49:52.117Z,9.88
2022-12-25T00:52:22.289Z,10.63
2022-12-25T00:54:52.517Z,11.75
2022-12-25T00:57:22.650Z,17.10
2022-12-25T00:59:52.801Z,12.90
2022-12-25T01:02:26.259Z,10.63
2022-12-25T01:04:57.544Z,13.02
2022-12-25T01:07:28.124Z,9.90
2022-12-25T01:10:17.045Z,7.93
2022-12-25T01:12:47.179Z,13.25
2022-12-25T01:15:18.048Z,13.52
2022-12-25T01:17:48.262Z,9.75
2022-12-25T01:20:19.451Z,8.90
2022-12-25T01:22:49.591Z,11.13
2022-12-25T01:25:20.161Z,12.88
2022-12-25T01:27:50.328Z,24.83
2022-12-25T01:30:20.409Z,27.33
2022-12-25T01:32:50.626Z,17.52
2022-12-25T01:35:20.880Z,14.95
2022-12-25T01:37:52.142Z,12.80
2022-12-25T01:40:22.450Z,9.80
2022-12-25T01:42:52.579Z,15.50
2022-12-25T01:45:40.702Z,11.70
2022-12-25T01:48:19.673Z,11.57
2022-12-25T01:50:59.071Z,19.38
2022-12-25T01:53:29.541Z,10.98
2022-12-25T01:56:04.643Z,10.95
2022-12-25T01:58:35.795Z,10.75
2022-12-25T02:01:05.973Z,9.82
2022-12-25T02:03:36.282Z,12.20
2022-12-25T02:06:07.695Z,12.02
2022-12-25T02:08:38.146Z,11.75
2022-12-25T02:11:29.353Z,10.90
2022-12-25T02:13:59.484Z,9.23
2022-12-25T02:16:35.693Z,10.20
2022-12-25T02:19:57.759Z,10.32
2022-12-25T02:23:05.381Z,13.38
2022-12-25T02:25:35.736Z,10.13
2022-12-25T02:28:45.963Z,11.27
2022-12-25T02:31:38.186Z,7.65
2022-12-25T02:34:32.158Z,9.60
2022-12-25T02:37:10.553Z,8.68
2022-12-25T02:39:59.810Z,8.23
2022-12-25T02:43:15.184Z,8.50
2022-12-25T02:46:10.841Z,8.43
2022-12-25T02:49:06.476Z,9.15
2022-12-25T02:51:58.614Z,19.55
2022-12-25T02:54:55.417Z,18.35
2022-12-25T03:00:56.648Z,8.60
2022-12-25T03:03:50.097Z,10.00
2022-12-25T03:06:40.740Z,13.75
2022-12-25T03:09:42.023Z,12.98
2022-12-25T03:12:43.528Z,10.15
2022-12-25T03:15:34.985Z,7.97
2022-12-25T03:18:10.170Z,9.93
2022-12-25T03:20:58.849Z,9.32
2022-12-25T03:23:52.535Z,9.20
2022-12-25T03:26:41.501Z,11.48
2022-12-25T03:29:32.201Z,10.88
2022-12-25T03:32:16.942Z,10.38
2022-12-25T03:35:24.445Z,10.52
2022-12-25T03:38:51.791Z,8.02
2022-12-25T03:42:07.605Z,11.07
2022-12-25T03:45:02.260Z,12.23
2022-12-25T03:48:01.069Z,11.10
2022-12-25T03:50:57.905Z,15.13
2022-12-25T03:54:09.272Z,11.45
2022-12-25T03:56:58.635Z,12.38
2022-12-25T03:59:47.741Z,7.75
2022-12-25T04:02:36.585Z,12.50
2022-12-25T04:05:26.057Z,8.98
2022-12-25T04:08:14.478Z,9.50
2022-12-25T04:11:03.200Z,10.45
2022-12-25T04:14:11.720Z,9.57
2022-12-25T04:17:00.329Z,7.80
2022-12-25T04:19:49.162Z,8.25
2022-12-25T04:22:38.156Z,8.48
2022-12-25T04:25:46.743Z,11.27
2022-12-25T04:28:35.118Z,12.70
2022-12-25T04:31:23.893Z,13.10
2022-12-25T04:34:12.794Z,12.90
2022-12-25T04:36:42.944Z,14.85
2022-12-25T04:39:13.257Z,11.90
2022-12-25T04:41:43.406Z,10.95
2022-12-25T04:44:13.719Z,13.35
2022-12-25T04:46:44.007Z,10.70
2022-12-25T04:49:14.201Z,11.90
2022-12-25T04:51:44.391Z,11.65
2022-12-25T04:54:14.656Z,14.27
2022-12-25T04:56:45.991Z,13.57
2022-12-25T04:59:16.380Z,10.85
2022-12-25T05:01:46.665Z,15.02
2022-12-25T05:04:16.780Z,14.20
2022-12-25T05:06:46.997Z,20.77
2022-12-25T05:09:17.124Z,12.18
2022-12-25T05:11:47.281Z,14.50
2022-12-25T05:14:17.430Z,15.18
2022-12-25T05:16:47.757Z,19.17
2022-12-25T05:19:17.927Z,17.20
2022-12-25T05:21:48.006Z,18.08
2022-12-25T05:24:18.152Z,14.48
2022-12-25T05:26:48.256Z,16.05
2022-12-25T05:29:18.406Z,15.90
2022-12-25T05:31:48.636Z,16.08
2022-12-25T05:34:18.889Z,17.17
2022-12-25T05:36:49.047Z,15.77
2022-12-25T05:39:19.415Z,14.50
2022-12-25T05:41:49.497Z,13.52
2022-12-25T05:44:19.647Z,16.35
2022-12-25T05:46:49.776Z,18.95
2022-12-25T05:49:20.150Z,15.40
2022-12-25T05:51:50.369Z,16.77
2022-12-25T05:54:20.980Z,17.55
2022-12-25T05:56:51.119Z,14.50
2022-12-25T05:59:21.259Z,14.73
2022-12-25T06:01:51.482Z,13.30
2022-12-25T06:04:21.765Z,17.50
2022-12-25T06:06:51.962Z,45.60
2022-12-25T06:09:22.067Z,25.35
2022-12-25T06:11:52.240Z,19.25
2022-12-25T06:14:22.465Z,15.35
2022-12-25T06:16:53.510Z,19.10
2022-12-25T06:19:24.124Z,15.43
2022-12-25T06:21:55.034Z,15.48
2022-12-25T06:24:25.293Z,13.50
2022-12-25T06:26:55.488Z,22.90
2022-12-25T06:29:25.745Z,18.15
2022-12-25T06:31:57.536Z,17.77
2022-12-25T06:34:27.999Z,39.03
2022-12-25T06:36:58.213Z,22.15
2022-12-25T06:39:28.418Z,22.88
2022-12-25T06:41:58.555Z,15.40
2022-12-25T06:44:28.736Z,14.30
2022-12-25T06:46:58.842Z,12.82
2022-12-25T06:49:29.058Z,14.93
2022-12-25T06:51:59.169Z,14.60
2022-12-25T06:54:29.401Z,13.50
2022-12-25T06:56:59.537Z,20.73
2022-12-25T06:59:30.100Z,27.08
2022-12-25T07:02:00.332Z,30.55
2022-12-25T07:04:42.082Z,21.70
2022-12-25T07:07:12.545Z,18.98
2022-12-25T07:09:42.863Z,15.55
2022-12-25T07:12:21.771Z,17.83
2022-12-25T07:14:54.797Z,17.77
2022-12-25T07:17:25.151Z,18.77
2022-12-25T07:19:56.772Z,27.10
2022-12-25T07:22:29.257Z,22.75
2022-12-25T07:24:59.513Z,16.85
2022-12-25T07:27:29.763Z,30.98
2022-12-25T07:29:59.894Z,22.33
2022-12-25T07:32:33.346Z,21.27
2022-12-25T07:35:03.639Z,22.80
2022-12-25T07:37:33.754Z,18.65
2022-12-25T07:40:04.181Z,20.45
2022-12-25T07:42:34.413Z,16.38
2022-12-25T07:45:05.304Z,16.13
2022-12-25T07:47:35.449Z,17.08
2022-12-25T07:50:06.416Z,20.13
2022-12-25T07:52:43.041Z,16.83
2022-12-25T07:57:43.811Z,14.32
2022-12-25T08:00:14.557Z,11.82
2022-12-25T08:02:45.107Z,15.48
2022-12-25T08:05:15.562Z,13.25
2022-12-25T08:07:45.711Z,18.58
2022-12-25T08:10:15.858Z,14.90
2022-12-25T08:12:46.026Z,47.22
2022-12-25T08:15:16.272Z,51.47
2022-12-25T08:17:46.434Z,33.42
2022-12-25T08:20:16.662Z,25.60
2022-12-25T08:22:46.880Z,21.98
2022-12-25T08:25:17.228Z,22.40
2022-12-25T08:27:47.403Z,26.50
2022-12-25T08:30:17.928Z,22.05
2022-12-25T08:32:48.329Z,24.92
2022-12-25T08:35:18.638Z,34.78
2022-12-25T08:37:48.816Z,35.88
2022-12-25T08:40:20.259Z,21.48
2022-12-25T08:42:50.454Z,29.50
2022-12-25T08:45:20.726Z,24.13
2022-12-25T08:47:55.656Z,23.30
2022-12-25T08:50:26.303Z,29.17
2022-12-25T08:52:56.479Z,31.92
2022-12-25T08:55:26.864Z,37.20
2022-12-25T08:57:57.046Z,40.15
2022-12-25T09:00:27.340Z,48.05
2022-12-25T09:02:57.568Z,57.65
2022-12-25T09:05:27.914Z,54.38
2022-12-25T09:07:58.193Z,37.65
2022-12-25T09:10:28.350Z,36.15
2022-12-25T09:12:58.466Z,36.13
2022-12-25T09:15:28.645Z,34.78
2022-12-25T09:17:58.764Z,40.78
2022-12-25T09:20:28.952Z,38.28
2022-12-25T09:22:59.289Z,39.95
2022-12-25T09:25:29.487Z,44.80
2022-12-25T09:27:59.634Z,57.83
2022-12-25T09:30:29.818Z,47.70
2022-12-25T09:33:00.096Z,31.38
2022-12-25T09:35:30.328Z,27.63
2022-12-25T09:38:00.506Z,27.83
2022-12-25T09:40:32.620Z,29.65
2022-12-25T09:43:04.157Z,37.47
2022-12-25T09:45:38.878Z,30.35
2022-12-25T09:48:15.040Z,35.00
2022-12-25T09:51:03.248Z,26.13
2022-12-25T09:53:44.504Z,29.73
2022-12-25T09:56:19.351Z,26.33
2022-12-25T09:58:49.442Z,19.05
2022-12-25T10:01:53.247Z,22.08
2022-12-25T10:04:41.752Z,23.70
2022-12-25T10:07:36.212Z,23.88
2022-12-25T10:10:32.822Z,34.13
2022-12-25T10:15:47.450Z,19.02
2022-12-25T10:18:44.823Z,28.25
2022-12-25T10:21:18.510Z,19.50
2022-12-25T10:24:04.848Z,22.90
2022-12-25T10:26:35.695Z,27.88
2022-12-25T10:29:17.365Z,20.50
2022-12-25T10:31:50.034Z,20.42
2022-12-25T10:34:20.613Z,21.20
2022-12-25T10:36:51.027Z,20.98
2022-12-25T10:39:24.446Z,20.40
2022-12-25T10:42:19.548Z,19.85
2022-12-25T10:44:57.987Z,20.40
2022-12-25T10:47:39.682Z,23.30
2022-12-25T10:50:17.534Z,19.88
2022-12-25T10:53:01.520Z,19.77
2022-12-25T10:55:33.377Z,25.80
2022-12-25T10:58:03.560Z,25.90
2022-12-25T11:00:34.064Z,27.38
2022-12-25T11:03:04.619Z,22.75
2022-12-25T11:05:36.349Z,23.33
2022-12-25T11:08:21.369Z,30.50
2022-12-25T11:10:57.764Z,35.63
2022-12-25T11:13:30.448Z,20.90
2022-12-25T11:16:06.106Z,22.90
2022-12-25T11:18:50.378Z,24.15
2022-12-25T11:21:24.870Z,22.75
2022-12-25T11:24:07.119Z,31.33
2022-12-25T11:26:48.489Z,26.50
2022-12-25T11:29:51.411Z,34.72
2022-12-25T11:32:29.671Z,24.73
2022-12-25T11:35:02.727Z,24.45
2022-12-25T11:37:46.377Z,27.75
2022-12-25T11:40:24.402Z,22.88
2022-12-25T11:43:18.645Z,22.20
2022-12-25T11:45:54.126Z,20.38
2022-12-25T11:48:34.425Z,26.95
2022-12-25T11:51:06.442Z,17.08
2022-12-25T11:53:41.352Z,26.38
2022-12-25T11:56:14.457Z,22.73
2022-12-25T11:58:49.523Z,32.13
2022-12-25T12:01:25.576Z,27.13
2022-12-25T12:03:56.515Z,22.35
2022-12-25T12:06:26.784Z,24.15
2022-12-25T12:09:09.418Z,21.27
2022-12-25T12:11:48.431Z,25.17
2022-12-25T12:14:45.957Z,27.30
2022-12-25T12:17:18.528Z,24.02
2022-12-25T12:19:48.855Z,24.42
2022-12-25T12:22:26.917Z,25.08
2022-12-25T12:25:04.805Z,19.13
2022-12-25T12:27:38.096Z,21.20
2022-12-25T12:30:24.507Z,26.58
2022-12-25T12:33:01.514Z,32.20
2022-12-25T12:38:17.450Z,25.23
2022-12-25T12:40:55.412Z,19.60
2022-12-25T12:43:43.359Z,27.17
2022-12-25T12:46:48.741Z,25.17
2022-12-25T12:49:35.123Z,27.55
2022-12-25T12:52:31.064Z,25.35
2022-12-25T12:55:13.271Z,25.70
2022-12-25T12:57:45.253Z,23.33
2022-12-25T13:00:19.881Z,21.75
2022-12-25T13:03:14.852Z,17.50
2022-12-25T13:05:55.750Z,15.10
2022-12-25T13:08:39.767Z,25.35
2022-12-25T13:11:21.613Z,21.17
2022-12-25T13:13:54.405Z,17.25
2022-12-25T13:16:27.553Z,22.02
2022-12-25T13:18:58.208Z,20.95
2022-12-25T13:21:29.875Z,17.88
2022-12-25T13:24:02.739Z,27.95
2022-12-25T13:26:33.286Z,23.30
2022-12-25T13:29:11.354Z,33.38
2022-12-25T13:31:42.346Z,25.75
2022-12-25T13:34:21.392Z,31.88
2022-12-25T13:36:51.660Z,17.33
2022-12-25T13:39:25.200Z,26.20
2022-12-25T13:42:09.768Z,27.38
2022-12-25T13:44:40.158Z,15.90
2022-12-25T13:47:31.378Z,22.17
2022-12-25T13:50:17.257Z,16.73
2022-12-25T13:52:47.586Z,18.33
2022-12-25T13:55:24.702Z,18.00
2022-12-25T14:00:39.572Z,13.15
2022-12-25T14:03:19.726Z,18.58
2022-12-25T14:06:00.855Z,20.38
2022-12-25T14:08:34.001Z,18.17
2022-12-25T14:11:06.395Z,22.55
2022-12-25T14:13:41.045Z,17.60
2022-12-25T14:16:12.726Z,19.48
2022-12-25T14:18:56.124Z,20.80
2022-12-25T14:21:35.196Z,24.80
2022-12-25T14:24:13.722Z,22.45
2022-12-25T14:26:44.540Z,21.08
2022-12-25T14:29:23.659Z,25.33
2022-12-25T14:31:59.012Z,21.40
2022-12-25T14:34:30.689Z,19.30
2022-12-25T14:37:03.618Z,23.73
2022-12-25T14:39:38.583Z,23.27
2022-12-25T14:42:20.139Z,23.55
2022-12-25T14:45:03.512Z,21.67
2022-12-25T14:47:50.091Z,21.38
2022-12-25T14:50:37.480Z,22.83
2022-12-25T14:53:19.885Z,23.40
2022-12-25T14:55:53.437Z,26.73
2022-12-25T14:58:28.044Z,24.75
2022-12-25T15:01:04.689Z,30.73
2022-12-25T15:03:38.070Z,20.50
2022-12-25T15:06:20.073Z,23.95
2022-12-25T15:08:59.031Z,25.58
2022-12-25T15:11:30.144Z,27.58
2022-12-25T15:14:00.830Z,36.03
2022-12-25T15:16:42.467Z,29.58
2022-12-25T15:19:23.492Z,29.80
2022-12-25T15:21:57.207Z,37.90
2022-12-25T15:24:27.324Z,46.47
2022-12-25T15:27:00.465Z,31.40
2022-12-25T15:30:09.260Z,27.75
2022-12-25T15:32:24.700Z,43.85
2022-12-25T15:34:54.824Z,28.13
2022-12-25T15:37:24.975Z,28.27
2022-12-25T15:39:57.425Z,34.90
2022-12-25T15:42:27.742Z,30.38
2022-12-25T15:44:58.137Z,24.17
2022-12-25T15:47:28.291Z,30.60
2022-12-25T15:49:58.515Z,25.20
2022-12-25T15:52:28.604Z,25.83
2022-12-25T15:54:58.743Z,26.10
2022-12-25T15:57:28.928Z,23.10
2022-12-25T15:59:59.686Z,35.00
2022-12-25T16:02:30.417Z,33.35
2022-12-25T16:05:05.440Z,39.38
2022-12-25T16:07:39.415Z,30.75
2022-12-25T16:10:18.767Z,32.85
2022-12-25T16:12:48.951Z,28.55
2022-12-25T16:15:19.181Z,25.90
2022-12-25T16:17:49.271Z,27.80
2022-12-25T16:20:19.485Z,25.52
2022-12-25T16:22:49.834Z,31.85
2022-12-25T16:25:20.475Z,27.15
2022-12-25T16:27:50.686Z,23.48
2022-12-25T16:30:21.071Z,27.27
2022-12-25T16:32:51.933Z,29.02
2022-12-25T16:35:22.127Z,34.33
2022-12-25T16:37:52.318Z,32.63
2022-12-25T16:40:22.654Z,27.55
2022-12-25T16:42:53.000Z,28.10
2022-12-25T16:45:23.402Z,40.63
2022-12-25T16:47:53.589Z,24.08
2022-12-25T16:50:23.961Z,38.58
2022-12-25T16:52:54.227Z,26.40
2022-12-25T16:55:29.654Z,32.35
2022-12-25T16:58:01.021Z,30.58
2022-12-25T17:00:31.222Z,34.55
2022-12-25T17:03:01.895Z,42.83
2022-12-25T17:05:33.614Z,25.27
2022-12-25T17:08:03.961Z,21.08
2022-12-25T17:10:34.153Z,27.17
2022-12-25T17:13:04.276Z,29.83
2022-12-25T17:15:34.445Z,27.92
2022-12-25T17:18:04.562Z,23.70
2022-12-25T17:20:36.233Z,26.58
2022-12-25T17:23:06.344Z,35.05
2022-12-25T17:25:36.973Z,26.63
2022-12-25T17:28:07.076Z,21.80
2022-12-25T17:30:37.216Z,23.75
2022-12-25T17:33:07.310Z,26.25
2022-12-25T17:35:37.715Z,23.35
2022-12-25T17:38:07.869Z,29.55
2022-12-25T17:40:37.999Z,20.13
2022-12-25T17:43:08.097Z,26.60
2022-12-25T17:45:38.214Z,21.52
2022-12-25T17:48:08.351Z,19.20
2022-12-25T17:50:41.456Z,24.73
2022-12-25T17:53:12.065Z,25.85
2022-12-25T17:55:42.418Z,26.75
2022-12-25T17:58:12.607Z,22.42
2022-12-25T18:00:42.724Z,23.75
2022-12-25T18:03:12.998Z,31.15
2022-12-25T18:05:43.391Z,26.35
2022-12-25T18:08:14.163Z,26.83
2022-12-25T18:10:44.726Z,24.45
2022-12-25T18:13:14.866Z,22.83
2022-12-25T18:15:44.988Z,24.00
2022-12-25T18:18:15.507Z,26.42
2022-12-25T18:20:45.693Z,22.73
2022-12-25T18:23:15.897Z,31.02
2022-12-25T18:25:46.090Z,24.30
2022-12-25T18:28:17.004Z,23.27
2022-12-25T18:30:47.792Z,22.33
2022-12-25T18:33:18.015Z,24.02
2022-12-25T18:35:48.236Z,28.60
2022-12-25T18:38:18.446Z,27.13
2022-12-25T18:40:48.780Z,25.50
2022-12-25T18:43:19.187Z,24.17
2022-12-25T18:46:00.499Z,25.67
2022-12-25T18:48:32.166Z,27.60
2022-12-25T18:51:05.912Z,23.83
2022-12-25T18:53:36.478Z,23.23
2022-12-25T18:56:10.091Z,31.42
2022-12-25T18:58:40.488Z,24.52
2022-12-25T19:01:14.670Z,26.88
2022-12-25T19:03:45.800Z,30.10
2022-12-25T19:06:26.796Z,24.40
2022-12-25T19:08:57.972Z,27.20
2022-12-25T19:11:28.297Z,27.83
2022-12-25T19:13:58.453Z,27.25
2022-12-25T19:16:28.733Z,25.98
2022-12-25T19:18:58.961Z,21.75
2022-12-25T19:21:29.248Z,20.92
2022-12-25T19:23:59.363Z,34.90
2022-12-25T19:26:29.493Z,30.05
2022-12-25T19:28:59.659Z,33.45
2022-12-25T19:31:29.851Z,23.27
2022-12-25T19:34:00.152Z,27.98
2022-12-25T19:36:30.600Z,33.80
2022-12-25T19:39:01.219Z,26.55
2022-12-25T19:41:31.971Z,41.90
2022-12-25T19:44:02.201Z,37.95
2022-12-25T19:46:35.099Z,36.33
2022-12-25T19:49:05.370Z,24.58
2022-12-25T19:51:41.167Z,31.98
2022-12-25T19:54:16.668Z,31.23
2022-12-25T19:56:47.860Z,27.52
2022-12-25T19:59:18.157Z,31.02
2022-12-25T20:01:48.526Z,27.25
2022-12-25T20:04:18.976Z,27.75
2022-12-25T20:06:49.137Z,27.80
2022-12-25T20:09:21.487Z,37.55
2022-12-25T20:11:52.092Z,31.20
2022-12-25T20:14:22.344Z,32.10
2022-12-25T20:16:52.460Z,29.52
2022-12-25T20:19:22.589Z,27.67
2022-12-25T20:21:54.340Z,29.83
2022-12-25T20:24:25.545Z,28.55
2022-12-25T20:26:59.252Z,31.00
2022-12-25T20:29:29.783Z,31.05
2022-12-25T20:31:59.995Z,23.45
2022-12-25T20:34:30.248Z,25.88
2022-12-25T20:37:00.396Z,26.38
2022-12-25T20:39:30.524Z,22.35
2022-12-25T20:42:00.614Z,28.17
2022-12-25T20:44:30.758Z,24.65
2022-12-25T20:47:01.320Z,46.13
2022-12-25T20:49:32.872Z,40.25
2022-12-25T20:52:05.684Z,35.70
2022-12-25T20:54:36.240Z,37.28
2022-12-25T20:57:06.499Z,29.52
2022-12-25T20:59:37.891Z,36.65
2022-12-25T21:02:10.455Z,33.08
2022-12-25T21:05:00.522Z,28.85
2022-12-25T21:07:30.961Z,30.33
2022-12-25T21:10:01.143Z,24.15
2022-12-25T21:12:31.241Z,24.98
2022-12-25T21:15:02.175Z,28.77
2022-12-25T21:17:32.338Z,23.77
2022-12-25T21:20:02.518Z,34.05
2022-12-25T21:22:33.376Z,41.97
2022-12-25T21:25:03.928Z,35.40
2022-12-25T21:27:33.988Z,29.55
2022-12-25T21:30:14.239Z,40.53
2022-12-25T21:33:04.503Z,27.65
2022-12-25T21:35:37.619Z,47.03
2022-12-25T21:38:07.906Z,33.90
2022-12-25T21:40:38.593Z,23.90
2022-12-25T21:43:12.104Z,41.65
2022-12-25T21:45:42.324Z,42.42
2022-12-25T21:48:13.482Z,33.95
2022-12-25T21:51:18.772Z,31.83
2022-12-25T21:53:49.359Z,25.65
2022-12-25T21:56:19.570Z,30.00
2022-12-25T21:58:49.710Z,34.28
2022-12-25T22:01:19.893Z,30.67
2022-12-25T22:03:50.185Z,29.98
2022-12-25T22:06:38.808Z,29.98
2022-12-25T22:09:09.372Z,30.42
2022-12-25T22:11:58.366Z,31.38
2022-12-25T22:14:51.404Z,54.78
2022-12-25T22:17:57.236Z,24.25
2022-12-25T22:20:38.711Z,33.28
2022-12-25T22:23:08.771Z,24.17
2022-12-25T22:25:38.941Z,27.02
2022-12-25T22:28:09.436Z,34.47
2022-12-25T22:30:44.515Z,31.65
2022-12-25T22:33:14.829Z,34.25
2022-12-25T22:35:44.971Z,36.92
2022-12-25T22:38:15.118Z,30.85
2022-12-25T22:40:45.287Z,26.20
2022-12-25T22:43:15.411Z,26.90
2022-12-25T22:45:45.581Z,37.40
2022-12-25T22:48:15.736Z,26.98
2022-12-25T22:50:45.881Z,27.67
2022-12-25T22:53:16.090Z,32.10
2022-12-25T22:55:49.597Z,27.35
2022-12-25T22:58:19.735Z,27.20
2022-12-25T23:00:49.870Z,29.60
2022-12-25T23:03:20.168Z,28.23
2022-12-25T23:05:54.961Z,25.73
2022-12-25T23:08:25.389Z,27.52
2022-12-25T23:10:55.519Z,24.52
2022-12-25T23:13:44.270Z,24.52
2022-12-25T23:16:15.720Z,36.08
2022-12-25T23:19:04.404Z,30.52
2022-12-25T23:21:53.545Z,27.75
2022-12-25T23:24:42.165Z,35.08
2022-12-25T23:27:12.525Z,30.67
2022-12-25T23:29:42.643Z,33.03
2022-12-25T23:32:30.487Z,26.90
2022-12-25T23:35:00.623Z,30.17
2022-12-25T23:37:31.115Z,23.83
2022-12-25T23:40:01.487Z,24.42
2022-12-25T23:42:31.720Z,21.17
2022-12-25T23:45:01.885Z,25.95
2022-12-25T23:47:32.088Z,27.58
2022-12-25T23:50:02.311Z,18.63
2022-12-25T23:52:32.467Z,31.73
2022-12-25T23:55:02.543Z,20.33
2022-12-25T23:57:32.731Z,23.08
